createdAt,value
2019-06-26T00:00:03.763Z,2.10
2019-06-26T00:02:33.048Z,2.07
2019-06-26T00:05:02.394Z,2.10
2019-06-26T00:07:32.056Z,2.97
2019-06-26T00:10:01.432Z,2.50
2019-06-26T00:12:30.465Z,2.30
2019-06-26T00:15:00.484Z,2.40
2019-06-26T00:17:29.786Z,2.33
2019-06-26T00:19:58.947Z,2.00
2019-06-26T00:22:28.687Z,2.17
2019-06-26T00:24:57.983Z,2.30
2019-06-26T00:27:27.423Z,2.00
2019-06-26T00:29:56.708Z,2.30
2019-06-26T00:32:25.777Z,3.37
2019-06-26T00:34:55.491Z,2.13
2019-06-26T00:37:24.827Z,2.00
2019-06-26T00:39:53.753Z,1.80
2019-06-26T00:42:22.923Z,2.20
2019-06-26T00:44:52.191Z,2.07
2019-06-26T00:47:21.924Z,2.57
2019-06-26T00:49:51.210Z,2.33
2019-06-26T00:52:20.899Z,2.17
2019-06-26T00:54:50.229Z,2.10
2019-06-26T00:57:21.001Z,1.73
2019-06-26T00:59:49.864Z,2.33
2019-06-26T01:02:19.545Z,2.60
2019-06-26T01:04:50.980Z,2.30
2019-06-26T01:07:19.931Z,2.57
2019-06-26T01:09:48.817Z,2.43
2019-06-26T01:12:17.800Z,3.07
2019-06-26T01:14:47.629Z,2.30
2019-06-26T01:17:17.176Z,2.43
2019-06-26T01:19:46.035Z,3.13
2019-06-26T01:22:15.370Z,2.27
2019-06-26T01:24:44.663Z,2.43
2019-06-26T01:27:13.881Z,1.87
2019-06-26T01:29:43.386Z,2.57
2019-06-26T01:32:12.434Z,2.03
2019-06-26T01:34:41.775Z,2.13
2019-06-26T01:37:11.070Z,2.10
2019-06-26T01:39:40.691Z,2.20
2019-06-26T01:42:09.749Z,2.60
2019-06-26T01:44:38.624Z,2.43
2019-06-26T01:47:07.958Z,2.10
2019-06-26T01:49:37.160Z,2.03
2019-06-26T01:52:06.467Z,2.13
2019-06-26T01:54:35.502Z,1.80
2019-06-26T01:57:04.508Z,2.13
2019-06-26T01:59:33.474Z,3.10
2019-06-26T02:02:02.846Z,1.90
2019-06-26T02:04:32.446Z,2.03
2019-06-26T02:07:01.829Z,2.33
2019-06-26T02:09:31.028Z,2.40
2019-06-26T02:12:00.611Z,2.00
2019-06-26T02:14:31.559Z,2.07
2019-06-26T02:17:01.015Z,2.70
2019-06-26T02:19:30.551Z,2.47
2019-06-26T02:21:59.544Z,2.10
2019-06-26T02:24:28.517Z,2.90
2019-06-26T02:26:57.807Z,2.00
2019-06-26T02:29:26.661Z,2.03
2019-06-26T02:31:55.645Z,3.30
2019-06-26T02:34:24.582Z,2.17
2019-06-26T02:36:53.518Z,2.37
2019-06-26T02:39:22.499Z,2.00
2019-06-26T02:41:51.459Z,1.90
2019-06-26T02:44:20.516Z,2.30
2019-06-26T02:46:49.435Z,2.57
2019-06-26T02:49:18.331Z,2.10
2019-06-26T02:51:47.435Z,2.40
2019-06-26T02:54:16.376Z,2.03
2019-06-26T02:56:45.419Z,1.90
2019-06-26T02:59:14.808Z,2.20
2019-06-26T03:01:43.802Z,2.23
2019-06-26T03:04:12.920Z,2.60
2019-06-26T03:06:41.919Z,2.03
2019-06-26T03:09:10.951Z,1.90
2019-06-26T03:11:39.898Z,2.00
2019-06-26T03:14:08.890Z,2.30
2019-06-26T03:16:37.903Z,2.00
2019-06-26T03:19:06.939Z,2.37
2019-06-26T03:21:35.883Z,2.10
2019-06-26T03:24:05.379Z,2.70
2019-06-26T03:26:34.318Z,2.50
2019-06-26T03:29:03.363Z,2.37
2019-06-26T03:31:33.377Z,2.87
2019-06-26T03:34:02.306Z,2.20
2019-06-26T03:36:31.156Z,2.50
2019-06-26T03:39:00.454Z,2.23
2019-06-26T03:41:29.489Z,2.37
2019-06-26T03:43:58.366Z,2.30
2019-06-26T03:46:27.388Z,2.23
2019-06-26T03:48:56.940Z,2.40
2019-06-26T03:51:25.990Z,2.40
2019-06-26T03:53:55.344Z,2.10
2019-06-26T03:56:24.752Z,2.03
2019-06-26T03:58:53.724Z,1.90
2019-06-26T04:01:23.055Z,2.37
2019-06-26T04:03:52.642Z,2.20
2019-06-26T04:06:22.060Z,2.40
2019-06-26T04:08:51.452Z,2.40
2019-06-26T04:11:20.567Z,2.77
2019-06-26T04:13:49.492Z,2.07
2019-06-26T04:16:18.509Z,2.47
2019-06-26T04:18:48.041Z,2.47
2019-06-26T04:21:17.336Z,2.73
2019-06-26T04:23:47.028Z,2.50
2019-06-26T04:26:16.407Z,2.80
2019-06-26T04:28:46.355Z,2.10
2019-06-26T04:31:15.372Z,2.93
2019-06-26T04:33:44.332Z,3.40
2019-06-26T04:36:13.652Z,2.30
2019-06-26T04:38:42.835Z,2.67
2019-06-26T04:41:12.039Z,2.23
2019-06-26T04:43:40.986Z,2.43
2019-06-26T04:46:10.225Z,2.50
2019-06-26T04:48:39.247Z,2.63
2019-06-26T04:51:08.520Z,2.30
2019-06-26T04:53:38.261Z,2.67
2019-06-26T04:56:07.291Z,3.73
2019-06-26T04:58:37.763Z,2.60
2019-06-26T05:01:07.557Z,2.93
2019-06-26T05:03:36.755Z,2.77
2019-06-26T05:06:05.876Z,2.97
2019-06-26T05:08:35.159Z,2.70
2019-06-26T05:11:04.637Z,2.97
2019-06-26T05:13:33.559Z,2.33
2019-06-26T05:16:14.241Z,2.20
2019-06-26T05:18:34.101Z,3.00
2019-06-26T05:21:03.811Z,2.90
2019-06-26T05:23:32.763Z,1.80
2019-06-26T05:26:01.704Z,2.83
2019-06-26T05:28:30.678Z,2.90
2019-06-26T05:31:00.054Z,2.80
2019-06-26T05:33:29.429Z,4.17
2019-06-26T05:35:58.469Z,3.40
2019-06-26T05:38:27.423Z,2.80
2019-06-26T05:40:56.451Z,3.30
2019-06-26T05:43:25.804Z,3.40
2019-06-26T05:45:54.976Z,2.70
2019-06-26T05:48:24.604Z,3.67
2019-06-26T05:50:53.883Z,3.23
2019-06-26T05:53:22.791Z,4.07
2019-06-26T05:55:52.204Z,3.97
2019-06-26T05:58:21.584Z,4.03
2019-06-26T06:00:50.879Z,3.80
2019-06-26T06:03:19.701Z,4.43
2019-06-26T06:05:49.065Z,4.63
2019-06-26T06:08:18.374Z,3.77
2019-06-26T06:10:47.772Z,4.53
2019-06-26T06:13:17.268Z,3.90
2019-06-26T06:15:46.137Z,4.30
2019-06-26T06:18:15.186Z,5.03
2019-06-26T06:20:44.416Z,3.87
2019-06-26T06:23:13.408Z,4.20
2019-06-26T06:25:42.383Z,4.27
2019-06-26T06:28:11.413Z,4.57
2019-06-26T06:30:40.414Z,3.97
2019-06-26T06:33:09.646Z,4.47
2019-06-26T06:35:38.558Z,5.00
2019-06-26T06:38:07.674Z,4.27
2019-06-26T06:40:36.676Z,4.33
2019-06-26T06:43:05.624Z,4.40
2019-06-26T06:45:34.628Z,5.43
2019-06-26T06:48:04.325Z,3.80
2019-06-26T06:50:33.603Z,4.50
2019-06-26T06:53:02.697Z,5.10
2019-06-26T06:55:31.655Z,4.90
2019-06-26T06:58:00.508Z,4.70
2019-06-26T07:00:29.508Z,5.10
2019-06-26T07:02:58.709Z,4.23
2019-06-26T07:05:28.464Z,4.43
2019-06-26T07:07:57.505Z,5.10
2019-06-26T07:10:26.877Z,5.20
2019-06-26T07:12:56.006Z,4.33
2019-06-26T07:15:25.111Z,4.10
2019-06-26T07:17:54.662Z,4.20
2019-06-26T07:20:23.621Z,5.00
2019-06-26T07:22:52.469Z,3.60
2019-06-26T07:25:21.582Z,5.40
2019-06-26T07:27:51.140Z,4.03
2019-06-26T07:30:20.329Z,4.80
2019-06-26T07:32:49.723Z,4.03
2019-06-26T07:35:18.992Z,4.90
2019-06-26T07:37:48.015Z,4.43
2019-06-26T07:40:17.585Z,4.57
2019-06-26T07:42:47.040Z,4.10
2019-06-26T07:45:16.890Z,4.40
2019-06-26T07:47:47.670Z,4.27
2019-06-26T07:50:16.959Z,4.50
2019-06-26T07:52:46.035Z,4.20
2019-06-26T07:55:14.949Z,4.77
2019-06-26T07:57:44.220Z,5.27
2019-06-26T08:00:13.447Z,5.27
2019-06-26T08:02:42.299Z,4.30
2019-06-26T08:05:12.969Z,5.40
2019-06-26T08:07:41.954Z,5.07
2019-06-26T08:10:11.297Z,4.90
2019-06-26T08:12:40.220Z,5.17
2019-06-26T08:15:09.696Z,3.87
2019-06-26T08:17:38.734Z,4.73
2019-06-26T08:20:08.120Z,4.67
2019-06-26T08:22:37.423Z,4.87
2019-06-26T08:25:07.695Z,4.43
2019-06-26T08:27:36.716Z,4.60
2019-06-26T08:30:06.208Z,4.40
2019-06-26T08:32:35.143Z,4.40
2019-06-26T08:35:04.729Z,3.87
2019-06-26T08:37:33.582Z,4.00
2019-06-26T08:40:02.926Z,4.23
2019-06-26T08:42:32.120Z,3.73
2019-06-26T08:45:01.474Z,4.97
2019-06-26T08:47:36.647Z,4.50
2019-06-26T08:50:06.436Z,4.30
2019-06-26T08:52:35.863Z,4.30
2019-06-26T08:55:05.696Z,4.70
2019-06-26T08:57:34.626Z,4.63
2019-06-26T09:00:04.398Z,4.30
2019-06-26T09:02:33.581Z,4.40
2019-06-26T09:05:02.623Z,4.90
2019-06-26T09:07:31.851Z,4.83
2019-06-26T09:10:00.990Z,4.60
2019-06-26T09:12:29.856Z,4.80
2019-06-26T09:14:58.886Z,4.40
2019-06-26T09:17:27.912Z,5.80
2019-06-26T09:19:56.837Z,4.53
2019-06-26T09:22:25.887Z,6.27
2019-06-26T09:24:55.060Z,4.70
2019-06-26T09:27:24.383Z,4.60
2019-06-26T09:29:53.308Z,4.50
2019-06-26T09:32:22.561Z,5.17
2019-06-26T09:34:52.144Z,5.17
2019-06-26T09:37:21.359Z,5.00
2019-06-26T09:39:50.651Z,4.83
2019-06-26T09:42:19.974Z,5.10
2019-06-26T09:44:49.023Z,5.17
2019-06-26T09:47:17.957Z,5.57
2019-06-26T09:49:46.940Z,6.93
2019-06-26T09:52:16.119Z,4.90
2019-06-26T09:54:45.337Z,5.00
2019-06-26T09:57:14.526Z,4.93
2019-06-26T09:59:43.543Z,5.30
2019-06-26T10:02:12.810Z,5.13
2019-06-26T10:04:42.009Z,5.60
2019-06-26T10:07:10.843Z,5.50
2019-06-26T10:09:39.800Z,5.20
2019-06-26T10:12:08.846Z,5.80
2019-06-26T10:14:47.360Z,5.97
2019-06-26T10:17:08.651Z,4.83
2019-06-26T10:19:37.583Z,6.33
2019-06-26T10:22:06.601Z,4.77
2019-06-26T10:24:35.607Z,5.40
2019-06-26T10:27:05.301Z,5.37
2019-06-26T10:29:34.173Z,4.87
2019-06-26T10:32:03.216Z,5.30
2019-06-26T10:34:32.382Z,4.30
2019-06-26T10:37:01.495Z,5.40
2019-06-26T10:39:30.745Z,4.80
2019-06-26T10:42:00.182Z,5.30
2019-06-26T10:44:29.114Z,4.50
2019-06-26T10:46:58.096Z,4.50
2019-06-26T10:49:27.919Z,6.13
2019-06-26T10:51:57.291Z,5.17
2019-06-26T10:54:26.160Z,5.17
2019-06-26T10:56:55.158Z,5.13
2019-06-26T10:59:24.460Z,4.70
2019-06-26T11:01:53.857Z,4.63
2019-06-26T11:04:23.180Z,4.97
2019-06-26T11:06:52.243Z,5.33
2019-06-26T11:09:21.273Z,4.90
2019-06-26T11:11:50.135Z,4.50
2019-06-26T11:14:19.143Z,5.07
2019-06-26T11:16:48.431Z,5.07
2019-06-26T11:19:17.791Z,4.90
2019-06-26T11:21:46.795Z,6.03
2019-06-26T11:24:16.024Z,5.60
2019-06-26T11:26:44.968Z,5.90
2019-06-26T11:29:14.126Z,4.50
2019-06-26T11:31:43.295Z,4.73
2019-06-26T11:34:12.288Z,5.30
2019-06-26T11:36:41.248Z,4.97
2019-06-26T11:39:10.908Z,5.07
2019-06-26T11:41:40.170Z,5.00
2019-06-26T11:44:09.510Z,4.50
2019-06-26T11:46:38.889Z,4.67
2019-06-26T11:49:08.317Z,4.77
2019-06-26T11:51:37.341Z,4.57
2019-06-26T11:54:06.710Z,4.73
2019-06-26T11:56:36.009Z,4.40
2019-06-26T11:59:05.411Z,5.20
2019-06-26T12:01:34.362Z,4.53
2019-06-26T12:04:03.368Z,5.30
2019-06-26T12:06:32.619Z,4.77
2019-06-26T12:09:02.211Z,3.87
2019-06-26T12:11:31.524Z,4.50
2019-06-26T12:14:00.700Z,4.77
2019-06-26T12:16:29.899Z,5.00
2019-06-26T12:18:58.712Z,5.30
2019-06-26T12:21:27.610Z,4.47
2019-06-26T12:23:56.629Z,4.57
2019-06-26T12:26:25.930Z,5.87
2019-06-26T12:28:55.171Z,4.67
2019-06-26T12:31:24.529Z,4.65
2019-06-26T12:33:53.902Z,4.63
2019-06-26T12:36:22.885Z,4.20
2019-06-26T12:38:51.814Z,5.00
2019-06-26T12:41:20.860Z,4.40
2019-06-26T12:43:49.731Z,3.60
2019-06-26T12:46:18.706Z,3.63
2019-06-26T12:48:47.534Z,4.43
2019-06-26T12:51:16.564Z,4.60
2019-06-26T12:53:45.616Z,4.77
2019-06-26T12:56:14.922Z,4.33
2019-06-26T12:58:44.184Z,5.10
2019-06-26T13:01:13.481Z,5.17
2019-06-26T13:03:42.768Z,4.10
2019-06-26T13:06:12.016Z,4.50
2019-06-26T13:08:41.020Z,4.25
2019-06-26T13:11:10.260Z,4.73
2019-06-26T13:13:39.309Z,5.60
2019-06-26T13:16:08.594Z,4.53
2019-06-26T13:18:37.575Z,5.03
2019-06-26T13:21:07.353Z,4.30
2019-06-26T13:23:36.603Z,4.90
2019-06-26T13:26:05.612Z,4.60
2019-06-26T13:28:34.670Z,4.83
2019-06-26T13:31:03.622Z,5.03
2019-06-26T13:33:32.829Z,4.80
2019-06-26T13:36:01.774Z,4.33
2019-06-26T13:38:30.873Z,4.40
2019-06-26T13:40:59.820Z,3.92
2019-06-26T13:43:28.725Z,4.30
2019-06-26T13:45:58.859Z,4.60
2019-06-26T13:48:28.039Z,4.77
2019-06-26T13:51:08.757Z,4.53
2019-06-26T13:53:27.663Z,3.77
2019-06-26T13:55:56.683Z,4.53
2019-06-26T13:58:26.392Z,4.60
2019-06-26T14:00:55.590Z,4.00
2019-06-26T14:03:24.544Z,3.75
2019-06-26T14:05:53.507Z,4.43
2019-06-26T14:08:22.531Z,3.70
2019-06-26T14:10:51.800Z,4.03
2019-06-26T14:13:20.655Z,4.15
2019-06-26T14:15:49.756Z,3.90
2019-06-26T14:18:18.751Z,3.90
2019-06-26T14:20:48.352Z,4.28
2019-06-26T14:23:17.227Z,4.03
2019-06-26T14:25:46.784Z,3.83
2019-06-26T14:28:18.672Z,4.25
2019-06-26T14:30:46.492Z,4.47
2019-06-26T14:33:15.443Z,3.77
2019-06-26T14:35:44.717Z,4.08
2019-06-26T14:38:14.037Z,3.80
2019-06-26T14:40:42.969Z,4.30
2019-06-26T14:43:11.917Z,3.67
2019-06-26T14:45:40.785Z,3.50
2019-06-26T14:48:09.799Z,4.40
2019-06-26T14:50:38.697Z,4.97
2019-06-26T14:53:07.968Z,5.37
2019-06-26T14:55:36.880Z,3.55
2019-06-26T14:58:05.957Z,3.92
2019-06-26T15:00:35.643Z,4.50
2019-06-26T15:03:05.529Z,4.03
2019-06-26T15:05:34.456Z,3.57
2019-06-26T15:08:03.445Z,3.65
2019-06-26T15:10:32.364Z,3.58
2019-06-26T15:13:01.246Z,3.73
2019-06-26T15:15:30.304Z,3.90
2019-06-26T15:17:59.688Z,3.70
2019-06-26T15:20:28.768Z,3.47
2019-06-26T15:22:58.947Z,3.60
2019-06-26T15:25:28.285Z,3.87
2019-06-26T15:27:57.266Z,4.23
2019-06-26T15:30:26.254Z,4.35
2019-06-26T15:32:55.240Z,3.37
2019-06-26T15:35:24.232Z,4.40
2019-06-26T15:37:53.659Z,4.33
2019-06-26T15:40:23.119Z,5.45
2019-06-26T15:42:52.198Z,3.83
2019-06-26T15:45:21.460Z,3.92
2019-06-26T15:47:50.810Z,4.20
2019-06-26T15:50:20.154Z,4.40
2019-06-26T15:52:49.424Z,4.20
2019-06-26T15:55:18.393Z,3.47
2019-06-26T15:57:47.407Z,4.28
2019-06-26T16:00:16.842Z,4.53
2019-06-26T16:02:45.881Z,3.95
2019-06-26T16:05:15.150Z,4.30
2019-06-26T16:07:44.313Z,5.12
2019-06-26T16:10:14.178Z,4.93
2019-06-26T16:12:43.351Z,4.58
2019-06-26T16:15:12.772Z,4.80
2019-06-26T16:17:57.150Z,3.87
2019-06-26T16:20:26.134Z,3.80
2019-06-26T16:22:55.151Z,4.45
2019-06-26T16:25:24.203Z,4.50
2019-06-26T16:28:04.595Z,4.27
2019-06-26T16:30:24.226Z,4.20
2019-06-26T16:32:56.021Z,4.60
2019-06-26T16:35:24.024Z,4.27
2019-06-26T16:37:53.108Z,4.12
2019-06-26T16:40:22.107Z,4.40
2019-06-26T16:42:51.046Z,4.50
2019-06-26T16:45:21.563Z,6.27
2019-06-26T16:47:50.796Z,6.17
2019-06-26T16:50:19.864Z,4.93
2019-06-26T16:52:50.250Z,6.33
2019-06-26T16:55:19.667Z,5.50
2019-06-26T16:57:48.700Z,5.30
2019-06-26T17:00:20.746Z,4.73
2019-06-26T17:02:50.193Z,5.47
2019-06-26T17:05:19.264Z,5.80
2019-06-26T17:07:48.461Z,5.60
2019-06-26T17:10:19.476Z,4.53
2019-06-26T17:12:48.534Z,5.47
2019-06-26T17:15:17.672Z,5.73
2019-06-26T17:17:47.194Z,4.27
2019-06-26T17:20:16.226Z,4.63
2019-06-26T17:22:45.313Z,4.80
2019-06-26T17:25:15.249Z,5.10
2019-06-26T17:27:44.243Z,4.70
2019-06-26T17:30:14.076Z,5.20
2019-06-26T17:32:43.263Z,5.07
2019-06-26T17:35:13.095Z,5.10
2019-06-26T17:37:42.031Z,5.93
2019-06-26T17:40:11.161Z,5.03
2019-06-26T17:42:40.175Z,6.10
2019-06-26T17:45:09.648Z,6.73
2019-06-26T17:47:38.642Z,6.03
2019-06-26T17:50:08.379Z,6.53
2019-06-26T17:52:38.587Z,5.80
2019-06-26T17:55:07.981Z,7.10
2019-06-26T17:57:37.231Z,5.43
2019-06-26T18:00:07.208Z,5.57
2019-06-26T18:02:36.225Z,5.70
2019-06-26T18:05:05.939Z,5.47
2019-06-26T18:07:35.020Z,5.70
2019-06-26T18:10:04.663Z,6.17
2019-06-26T18:12:33.908Z,5.67
2019-06-26T18:15:02.948Z,5.97
2019-06-26T18:17:32.007Z,6.10
2019-06-26T18:20:01.301Z,6.97
2019-06-26T18:22:30.287Z,6.13
2019-06-26T18:24:59.252Z,7.10
2019-06-26T18:27:28.577Z,5.17
2019-06-26T18:29:57.705Z,6.43
2019-06-26T18:32:26.695Z,7.03
2019-06-26T18:34:56.068Z,6.90
2019-06-26T18:37:25.305Z,6.17
2019-06-26T18:39:54.583Z,4.90
2019-06-26T18:42:23.822Z,4.67
2019-06-26T18:44:53.045Z,4.70
2019-06-26T18:47:21.962Z,4.90
2019-06-26T18:49:51.199Z,4.90
2019-06-26T18:52:20.844Z,5.40
2019-06-26T18:54:50.024Z,4.97
2019-06-26T18:57:19.325Z,5.40
2019-06-26T18:59:48.605Z,4.90
2019-06-26T19:02:17.484Z,5.00
2019-06-26T19:04:48.059Z,6.90
2019-06-26T19:07:17.341Z,4.97
2019-06-26T19:09:46.581Z,5.00
2019-06-26T19:12:15.826Z,5.47
2019-06-26T19:14:46.144Z,5.23
2019-06-26T19:17:15.728Z,4.63
2019-06-26T19:19:45.038Z,5.33
2019-06-26T19:22:14.801Z,5.47
2019-06-26T19:24:44.103Z,5.93
2019-06-26T19:27:13.582Z,6.10
2019-06-26T19:29:42.584Z,5.07
2019-06-26T19:32:11.609Z,5.53
2019-06-26T19:34:40.983Z,5.93
2019-06-26T19:37:10.281Z,4.70
2019-06-26T19:39:39.168Z,5.37
2019-06-26T19:42:08.106Z,4.70
2019-06-26T19:44:37.138Z,5.50
2019-06-26T19:47:06.451Z,5.47
2019-06-26T19:49:36.109Z,5.27
2019-06-26T19:52:05.180Z,4.93
2019-06-26T19:54:34.556Z,5.27
2019-06-26T19:57:03.617Z,7.10
2019-06-26T19:59:33.154Z,5.27
2019-06-26T20:02:02.489Z,5.20
2019-06-26T20:04:31.790Z,4.90
2019-06-26T20:07:00.786Z,5.87
2019-06-26T20:09:29.746Z,4.90
2019-06-26T20:11:58.830Z,6.40
2019-06-26T20:14:28.513Z,7.30
2019-06-26T20:16:57.878Z,5.97
2019-06-26T20:19:27.501Z,6.20
2019-06-26T20:21:56.597Z,5.27
2019-06-26T20:24:25.521Z,6.37
2019-06-26T20:26:54.540Z,6.77
2019-06-26T20:29:23.682Z,10.55
2019-06-26T20:32:20.019Z,11.00
2019-06-26T20:34:50.101Z,7.73
2019-06-26T20:37:19.184Z,7.07
2019-06-26T21:13:48.316Z,5.60
2019-06-26T21:16:17.919Z,5.03
2019-06-26T21:18:48.467Z,5.57
2019-06-26T21:21:20.681Z,6.17
2019-06-26T21:23:52.024Z,7.60
2019-06-26T21:26:59.371Z,7.83
2019-06-26T21:30:16.556Z,6.00
2019-06-26T21:40:09.784Z,6.77
2019-06-26T21:42:39.173Z,6.30
2019-06-26T21:45:09.580Z,5.47
2019-06-26T21:47:38.835Z,5.10
2019-06-26T21:50:08.321Z,5.70
2019-06-26T21:52:38.029Z,5.13
2019-06-26T21:55:07.156Z,4.43
2019-06-26T21:57:36.260Z,4.93
2019-06-26T22:00:06.413Z,4.77
2019-06-26T22:02:35.544Z,5.50
2019-06-26T22:05:05.574Z,5.23
2019-06-26T22:07:34.618Z,5.30
2019-06-26T22:10:04.783Z,5.33
2019-06-26T22:12:33.808Z,4.80
2019-06-26T22:15:03.159Z,4.70
2019-06-26T22:17:32.447Z,6.30
2019-06-26T22:20:02.090Z,4.97
2019-06-26T22:22:31.480Z,4.90
2019-06-26T22:25:00.822Z,5.00
2019-06-26T22:27:30.157Z,5.07
2019-06-26T22:29:59.416Z,5.50
2019-06-26T22:32:28.607Z,5.40
2019-06-26T22:34:58.158Z,5.40
2019-06-26T22:37:27.459Z,5.63
2019-06-26T22:39:56.763Z,4.50
2019-06-26T22:42:26.939Z,5.57
2019-06-26T22:44:55.895Z,4.50
2019-06-26T22:47:25.155Z,4.90
2019-06-26T22:49:54.649Z,4.60
2019-06-26T22:52:24.135Z,4.53
2019-06-26T22:54:53.189Z,5.00
2019-06-26T22:57:22.199Z,6.10
2019-06-26T22:59:51.163Z,5.17
2019-06-26T23:02:20.025Z,6.17
2019-06-26T23:04:49.245Z,4.63
2019-06-26T23:07:18.248Z,4.60
2019-06-26T23:10:06.477Z,4.40
2019-06-26T23:12:35.489Z,4.70
2019-06-26T23:15:04.983Z,4.17
2019-06-26T23:17:33.986Z,4.00
2019-06-26T23:20:03.265Z,5.80
2019-06-26T23:22:32.200Z,4.10
2019-06-26T23:25:01.162Z,5.00
2019-06-26T23:27:30.250Z,4.50
2019-06-26T23:29:59.325Z,4.10
2019-06-26T23:32:28.270Z,4.37
2019-06-26T23:34:58.180Z,3.93
2019-06-26T23:37:27.385Z,3.70
2019-06-26T23:39:56.410Z,3.73
2019-06-26T23:42:25.625Z,4.17
2019-06-26T23:44:54.840Z,3.50
2019-06-26T23:47:23.836Z,4.20
2019-06-26T23:49:52.711Z,4.17
2019-06-26T23:52:21.630Z,3.93
2019-06-26T23:54:50.578Z,4.37
2019-06-26T23:57:19.461Z,4.03
2019-06-26T23:59:48.913Z,4.33
